createdAt,value
2023-05-06T00:01:40.549Z,49.88
2023-05-06T00:04:07.512Z,54.03
2023-05-06T00:06:38.545Z,48.03
2023-05-06T00:09:05.315Z,45.90
2023-05-06T00:11:35.186Z,55.15
2023-05-06T00:14:09.996Z,48.25
2023-05-06T00:16:36.855Z,49.58
2023-05-06T00:19:04.256Z,49.70
2023-05-06T00:21:38.687Z,48.40
2023-05-06T00:24:08.627Z,51.75
2023-05-06T00:26:36.809Z,45.33
2023-05-06T00:29:04.096Z,53.35
2023-05-06T00:31:30.809Z,53.78
2023-05-06T00:33:57.672Z,52.85
2023-05-06T00:36:24.310Z,54.65
2023-05-06T00:38:51.045Z,63.28
2023-05-06T00:41:17.914Z,64.22
2023-05-06T00:43:44.623Z,58.58
2023-05-06T00:46:11.791Z,67.32
2023-05-06T00:48:38.835Z,63.42
2023-05-06T00:51:05.943Z,62.20
2023-05-06T00:53:33.375Z,66.40
2023-05-06T00:56:00.126Z,69.18
2023-05-06T00:58:28.188Z,74.22
2023-05-06T01:00:55.518Z,62.22
2023-05-06T01:03:23.012Z,64.22
2023-05-06T01:06:10.020Z,66.05
2023-05-06T01:08:52.362Z,59.53
2023-05-06T01:11:45.283Z,68.47
2023-05-06T01:14:30.957Z,69.25
2023-05-06T01:17:04.999Z,70.07
2023-05-06T01:19:43.276Z,74.78
2023-05-06T01:22:11.759Z,70.97
2023-05-06T01:24:45.289Z,71.00
2023-05-06T01:27:14.103Z,71.07
2023-05-06T01:29:43.299Z,77.05
2023-05-06T01:32:22.209Z,82.72
2023-05-06T01:35:24.430Z,71.40
2023-05-06T01:38:12.140Z,66.53
2023-05-06T01:40:47.905Z,67.05
2023-05-06T01:43:26.624Z,66.22
2023-05-06T01:45:54.962Z,65.00
2023-05-06T01:48:34.983Z,68.63
2023-05-06T01:51:01.927Z,68.22
2023-05-06T01:53:40.725Z,68.50
2023-05-06T01:56:07.804Z,64.75
2023-05-06T01:58:34.637Z,65.87
2023-05-06T02:01:01.518Z,69.65
2023-05-06T02:03:28.290Z,66.95
2023-05-06T02:05:55.041Z,62.97
2023-05-06T02:08:22.093Z,65.87
2023-05-06T02:10:48.773Z,62.90
2023-05-06T02:13:16.091Z,65.45
2023-05-06T02:15:42.962Z,61.20
2023-05-06T02:18:09.840Z,66.30
2023-05-06T02:20:36.528Z,59.92
2023-05-06T02:23:03.312Z,57.47
2023-05-06T02:25:30.085Z,60.25
2023-05-06T02:27:56.964Z,57.50
2023-05-06T02:30:24.042Z,58.17
2023-05-06T02:32:50.750Z,51.93
2023-05-06T02:35:17.610Z,52.78
2023-05-06T02:37:44.390Z,56.17
2023-05-06T02:40:11.816Z,57.10
2023-05-06T02:42:38.593Z,60.63
2023-05-06T02:45:05.906Z,59.55
2023-05-06T02:47:32.841Z,58.08
2023-05-06T02:49:59.930Z,56.10
2023-05-06T02:52:26.656Z,58.03
2023-05-06T02:54:53.343Z,59.42
2023-05-06T02:57:20.017Z,62.30
2023-05-06T02:59:46.688Z,57.63
2023-05-06T03:02:13.838Z,56.85
2023-05-06T03:04:40.624Z,55.47
2023-05-06T03:07:07.468Z,55.83
2023-05-06T03:09:34.139Z,56.60
2023-05-06T03:12:00.824Z,56.85
2023-05-06T03:14:27.501Z,56.72
2023-05-06T03:16:54.329Z,63.30
2023-05-06T03:19:21.202Z,61.47
2023-05-06T03:21:48.323Z,64.65
2023-05-06T03:24:15.316Z,58.20
2023-05-06T03:26:42.214Z,52.73
2023-05-06T03:29:09.229Z,57.50
2023-05-06T03:31:35.995Z,55.87
2023-05-06T03:34:02.973Z,50.03
2023-05-06T03:36:29.815Z,54.78
2023-05-06T03:38:56.471Z,53.53
2023-05-06T03:41:24.825Z,49.55
2023-05-06T03:43:52.562Z,47.95
2023-05-06T03:46:19.245Z,49.00
2023-05-06T03:48:46.175Z,48.97
2023-05-06T03:51:13.189Z,54.55
2023-05-06T03:53:39.918Z,49.07
2023-05-06T03:56:07.097Z,51.40
2023-05-06T03:58:33.853Z,46.97
2023-05-06T04:01:01.207Z,48.03
2023-05-06T04:03:28.093Z,48.72
2023-05-06T04:05:54.907Z,43.90
2023-05-06T04:08:21.783Z,51.05
2023-05-06T04:10:48.575Z,45.83
2023-05-06T04:13:15.518Z,44.38
2023-05-06T04:15:42.890Z,43.97
2023-05-06T04:18:09.587Z,47.03
2023-05-06T04:20:36.530Z,42.25
2023-05-06T04:23:03.384Z,42.88
2023-05-06T04:25:30.203Z,42.92
2023-05-06T04:27:56.942Z,42.28
2023-05-06T04:30:23.831Z,37.67
2023-05-06T04:32:50.547Z,40.50
2023-05-06T04:35:17.433Z,39.13
2023-05-06T04:37:44.631Z,36.60
2023-05-06T04:40:14.155Z,40.40
2023-05-06T04:42:40.978Z,37.35
2023-05-06T04:45:08.947Z,35.72
2023-05-06T04:47:36.304Z,32.38
2023-05-06T04:50:04.585Z,36.00
2023-05-06T04:52:31.569Z,33.13
2023-05-06T04:54:58.243Z,38.10
2023-05-06T04:57:25.199Z,30.52
2023-05-06T04:59:51.921Z,27.23
2023-05-06T05:02:18.668Z,35.17
2023-05-06T05:04:45.810Z,29.85
2023-05-06T05:07:12.505Z,31.27
2023-05-06T05:09:39.250Z,28.77
2023-05-06T05:12:06.285Z,28.55
2023-05-06T05:14:33.053Z,28.70
2023-05-06T05:16:59.856Z,28.77
2023-05-06T05:19:26.668Z,25.17
2023-05-06T05:21:53.449Z,27.60
2023-05-06T05:24:20.162Z,28.98
2023-05-06T05:26:46.916Z,28.45
2023-05-06T05:29:13.782Z,25.63
2023-05-06T05:31:40.730Z,27.60
2023-05-06T05:34:07.793Z,25.20
2023-05-06T05:36:34.949Z,25.77
2023-05-06T05:39:01.893Z,28.02
2023-05-06T05:41:28.620Z,29.70
2023-05-06T05:43:55.440Z,27.73
2023-05-06T05:46:22.188Z,28.38
2023-05-06T05:48:48.907Z,26.42
2023-05-06T05:51:15.668Z,30.08
2023-05-06T05:53:42.423Z,27.25
2023-05-06T05:56:09.216Z,26.60
2023-05-06T05:58:35.910Z,27.30
2023-05-06T06:01:02.704Z,26.05
2023-05-06T06:03:29.568Z,26.08
2023-05-06T06:05:56.649Z,27.20
2023-05-06T06:08:23.364Z,22.90
2023-05-06T06:10:50.170Z,22.73
2023-05-06T06:13:17.153Z,20.42
2023-05-06T06:15:44.102Z,21.40
2023-05-06T06:18:11.205Z,20.43
2023-05-06T06:20:38.071Z,18.87
2023-05-06T06:23:04.815Z,21.83
2023-05-06T06:25:33.383Z,16.45
2023-05-06T06:28:00.077Z,15.98
2023-05-06T06:33:41.446Z,20.70
2023-05-06T06:36:08.701Z,17.27
2023-05-06T06:38:36.683Z,15.43
2023-05-06T06:41:05.646Z,15.98
2023-05-06T06:43:32.845Z,16.38
2023-05-06T06:46:01.355Z,20.70
2023-05-06T06:48:28.063Z,15.85
2023-05-06T06:50:54.852Z,16.35
2023-05-06T06:53:21.647Z,15.32
2023-05-06T06:55:51.390Z,16.13
2023-05-06T06:58:19.160Z,14.23
2023-05-06T07:00:45.815Z,13.25
2023-05-06T07:03:16.257Z,11.60
2023-05-06T07:05:46.501Z,12.07
2023-05-06T07:08:13.167Z,12.43
2023-05-06T07:10:42.256Z,12.18
2023-05-06T07:13:09.852Z,13.02
2023-05-06T07:15:36.894Z,12.57
2023-05-06T07:18:03.962Z,11.43
2023-05-06T07:20:30.957Z,10.73
2023-05-06T07:22:58.375Z,11.40
2023-05-06T07:25:25.033Z,10.75
2023-05-06T07:27:51.871Z,10.38
2023-05-06T07:30:22.870Z,10.38
2023-05-06T07:32:50.335Z,10.00
2023-05-06T07:35:17.369Z,11.90
2023-05-06T07:37:48.668Z,9.17
2023-05-06T07:40:15.376Z,9.20
2023-05-06T07:42:43.090Z,8.10
2023-05-06T07:45:10.778Z,8.27
2023-05-06T07:47:40.682Z,8.55
2023-05-06T07:50:08.461Z,7.20
2023-05-06T07:52:35.262Z,8.38
2023-05-06T07:55:01.903Z,7.05
2023-05-06T07:57:28.622Z,10.88
2023-05-06T07:59:55.396Z,7.40
2023-05-06T08:02:22.657Z,6.93
2023-05-06T08:04:51.494Z,5.47
2023-05-06T08:07:18.650Z,5.15
2023-05-06T08:09:48.060Z,5.30
2023-05-06T08:12:16.003Z,7.20
2023-05-06T08:14:46.917Z,5.22
2023-05-06T08:17:14.077Z,4.05
2023-05-06T08:19:40.779Z,3.95
2023-05-06T08:22:09.408Z,3.17
2023-05-06T08:24:36.151Z,8.18
2023-05-06T08:27:04.526Z,42.70
2023-05-06T08:29:31.281Z,5.82
2023-05-06T08:31:57.956Z,12.43
2023-05-06T08:34:24.968Z,3.67
2023-05-06T08:36:52.355Z,3.73
2023-05-06T08:39:19.251Z,18.40
2023-05-06T08:41:52.580Z,10.70
2023-05-06T08:44:21.831Z,8.60
2023-05-06T08:46:49.561Z,2.83
2023-05-06T08:49:16.670Z,3.53
2023-05-06T08:51:45.400Z,1.15
2023-05-06T08:54:14.068Z,5.22
2023-05-06T08:56:49.490Z,1.80
2023-05-06T08:59:16.973Z,1.80
2023-05-06T09:01:44.499Z,5.18
2023-05-06T09:06:38.051Z,3.17
2023-05-06T09:09:06.310Z,3.57
2023-05-06T09:11:36.550Z,4.13
2023-05-06T09:14:16.376Z,3.47
2023-05-06T09:16:49.882Z,1.88
2023-05-06T09:19:20.141Z,2.40
2023-05-06T09:21:49.739Z,6.28
2023-05-06T09:24:16.969Z,2.92
2023-05-06T09:26:47.049Z,1.25
2023-05-06T09:29:14.398Z,1.70
2023-05-06T09:31:45.516Z,2.53
2023-05-06T09:34:13.148Z,1.45
2023-05-06T09:36:39.932Z,3.30
2023-05-06T09:39:07.374Z,2.27
2023-05-06T09:41:34.030Z,2.25
2023-05-06T09:44:01.217Z,2.60
2023-05-06T09:46:29.232Z,1.88
2023-05-06T09:48:57.396Z,1.38
2023-05-06T09:51:24.546Z,3.75
2023-05-06T09:53:51.900Z,1.88
2023-05-06T09:56:24.713Z,2.53
2023-05-06T09:58:52.761Z,1.98
2023-05-06T10:01:32.736Z,2.72
2023-05-06T10:04:08.522Z,4.53
2023-05-06T10:06:39.545Z,2.67
2023-05-06T10:09:08.587Z,2.20
2023-05-06T10:11:36.040Z,2.17
2023-05-06T10:16:30.085Z,4.03
2023-05-06T10:18:58.385Z,2.28
2023-05-06T10:21:28.362Z,1.35
2023-05-06T10:24:11.826Z,1.33
2023-05-06T10:26:39.682Z,2.70
2023-05-06T10:29:10.784Z,2.60
2023-05-06T10:31:57.449Z,3.55
2023-05-06T10:34:28.099Z,2.70
2023-05-06T10:36:57.935Z,2.08
2023-05-06T10:39:26.098Z,3.63
2023-05-06T10:41:52.971Z,3.55
2023-05-06T10:44:58.998Z,2.88
2023-05-06T10:47:28.840Z,3.67
2023-05-06T10:50:29.779Z,9.35
2023-05-06T10:52:59.355Z,2.35
2023-05-06T10:55:30.724Z,8.23
2023-05-06T10:58:02.121Z,2.22
2023-05-06T11:00:33.077Z,1.83
2023-05-06T11:03:06.861Z,1.55
2023-05-06T11:05:48.320Z,4.65
2023-05-06T11:08:16.629Z,10.48
2023-05-06T11:10:43.323Z,0.90
2023-05-06T11:13:30.471Z,3.47
2023-05-06T11:15:58.265Z,2.22
2023-05-06T11:18:24.970Z,2.17
2023-05-06T11:21:12.855Z,5.55
2023-05-06T11:23:55.251Z,3.92
2023-05-06T11:26:21.916Z,1.50
2023-05-06T11:28:50.609Z,2.53
2023-05-06T11:31:19.228Z,1.50
2023-05-06T11:33:48.082Z,1.77
2023-05-06T11:36:15.969Z,3.38
2023-05-06T11:38:47.436Z,1.10
2023-05-06T11:41:16.669Z,1.73
2023-05-06T11:43:51.029Z,1.55
2023-05-06T11:46:19.749Z,3.47
2023-05-06T11:48:46.967Z,1.70
2023-05-06T11:51:13.622Z,1.88
2023-05-06T11:53:40.724Z,2.07
2023-05-06T11:56:07.908Z,2.50
2023-05-06T11:58:35.897Z,1.30
2023-05-06T12:01:04.233Z,1.35
2023-05-06T12:03:32.024Z,1.60
2023-05-06T12:05:59.452Z,1.10
2023-05-06T12:11:01.908Z,2.38
2023-05-06T12:13:31.041Z,2.80
2023-05-06T12:15:59.767Z,4.10
2023-05-06T12:18:26.930Z,3.10
2023-05-06T12:20:56.128Z,4.20
2023-05-06T12:23:22.966Z,2.20
2023-05-06T12:26:04.306Z,3.55
2023-05-06T12:28:32.729Z,2.63
2023-05-06T12:30:59.919Z,1.70
2023-05-06T12:35:57.213Z,2.17
2023-05-06T12:38:25.396Z,1.55
2023-05-06T12:40:55.641Z,4.53
2023-05-06T12:43:33.134Z,3.28
2023-05-06T12:46:05.097Z,3.17
2023-05-06T12:48:33.373Z,2.75
2023-05-06T12:51:02.521Z,5.38
2023-05-06T12:53:33.919Z,1.58
2023-05-06T12:56:00.927Z,5.30
2023-05-06T12:58:27.696Z,1.35
2023-05-06T13:00:54.374Z,2.30
2023-05-06T13:03:21.362Z,2.97
2023-05-06T13:05:50.431Z,3.45
2023-05-06T13:08:18.591Z,1.73
2023-05-06T13:10:45.299Z,2.17
2023-05-06T13:13:11.963Z,1.13
2023-05-06T13:15:39.322Z,2.08
2023-05-06T13:20:32.992Z,2.10
2023-05-06T13:22:59.757Z,1.98
2023-05-06T13:25:29.230Z,2.07
2023-05-06T13:27:56.744Z,2.25
2023-05-06T13:30:23.583Z,2.40
2023-05-06T13:32:51.417Z,4.00
2023-05-06T13:35:18.529Z,2.53
2023-05-06T13:37:48.501Z,2.53
2023-05-06T13:40:18.676Z,3.35
2023-05-06T13:42:45.567Z,35.70
2023-05-06T13:45:12.758Z,4.07
2023-05-06T13:47:39.584Z,3.33
2023-05-06T13:50:11.450Z,2.90
2023-05-06T13:52:38.424Z,2.38
2023-05-06T13:55:05.940Z,5.32
2023-05-06T13:57:32.745Z,2.88
2023-05-06T13:59:59.549Z,1.38
2023-05-06T14:02:27.048Z,3.17
2023-05-06T14:04:54.006Z,4.07
2023-05-06T14:07:20.894Z,4.43
2023-05-06T14:09:49.040Z,6.03
2023-05-06T14:12:16.384Z,2.28
2023-05-06T14:14:43.348Z,2.35
2023-05-06T14:17:12.573Z,4.88
2023-05-06T14:19:39.189Z,2.08
2023-05-06T14:22:08.727Z,11.30
2023-05-06T14:27:29.322Z,4.05
2023-05-06T14:29:59.407Z,5.35
2023-05-06T14:32:33.841Z,3.08
2023-05-06T14:35:11.954Z,5.78
2023-05-06T14:37:39.228Z,7.35
2023-05-06T14:40:08.307Z,5.80
2023-05-06T14:42:55.746Z,9.35
2023-05-06T14:56:39.546Z,5.40
2023-05-06T18:09:27.478Z,2.58
2023-05-06T18:12:00.037Z,4.37
2023-05-06T18:14:33.606Z,4.32
2023-05-06T18:17:00.496Z,4.30
2023-05-06T18:19:27.860Z,3.37
2023-05-06T18:22:31.709Z,5.43
2023-05-06T18:25:28.635Z,3.67
2023-05-06T18:27:54.769Z,4.35
2023-05-06T18:30:28.034Z,31.17
2023-05-06T18:32:56.665Z,39.70
2023-05-06T18:35:24.021Z,14.32
2023-05-06T18:37:51.125Z,8.68
2023-05-06T18:40:21.657Z,6.13
2023-05-06T18:42:52.913Z,12.80
2023-05-06T18:45:19.678Z,23.95
2023-05-06T18:47:46.545Z,5.33
2023-05-06T18:50:13.442Z,5.13
2023-05-06T18:52:41.259Z,5.13
2023-05-06T18:57:36.065Z,4.85
2023-05-06T19:10:34.292Z,4.25
2023-05-06T19:13:02.990Z,4.03
2023-05-06T19:15:33.117Z,4.00
2023-05-06T19:18:00.157Z,4.88
2023-05-06T19:20:27.003Z,5.07
2023-05-06T19:22:53.704Z,3.90
2023-05-06T19:25:20.953Z,7.68
2023-05-06T19:27:47.627Z,3.58
2023-05-06T19:30:14.490Z,6.53
2023-05-06T19:32:44.574Z,5.77
2023-05-06T19:35:11.806Z,3.45
2023-05-06T19:37:38.728Z,4.53
2023-05-06T19:40:06.610Z,5.07
2023-05-06T19:42:34.728Z,5.97
2023-05-06T19:45:07.577Z,4.90
2023-05-06T19:47:34.472Z,6.95
2023-05-06T19:50:02.512Z,4.30
2023-05-06T19:52:31.464Z,7.80
2023-05-06T19:54:59.489Z,5.93
2023-05-06T19:57:31.017Z,4.70
2023-05-06T19:59:57.895Z,9.43
2023-05-06T20:02:31.888Z,5.37
2023-05-06T20:05:00.687Z,8.25
2023-05-06T20:07:27.805Z,4.70
2023-05-06T20:09:56.221Z,4.00
2023-05-06T20:12:23.874Z,8.73
2023-05-06T20:14:50.821Z,6.07
2023-05-06T20:17:17.588Z,5.07
2023-05-06T20:19:45.582Z,4.50
2023-05-06T20:22:12.821Z,3.55
2023-05-06T20:24:42.050Z,5.32
2023-05-06T20:27:09.101Z,6.78
2023-05-06T20:29:36.108Z,7.20
2023-05-06T20:32:03.154Z,3.70
2023-05-06T20:34:31.752Z,3.78
2023-05-06T20:36:58.538Z,4.95
2023-05-06T20:39:26.317Z,3.50
2023-05-06T20:44:25.734Z,5.10
2023-05-06T20:46:52.867Z,4.93
2023-05-06T20:49:21.635Z,6.53
2023-05-06T20:51:49.569Z,4.35
2023-05-06T20:54:18.448Z,3.40
2023-05-06T20:56:45.687Z,6.40
2023-05-06T20:59:12.412Z,8.13
2023-05-06T21:01:44.681Z,5.90
2023-05-06T21:04:11.875Z,3.50
2023-05-06T21:06:41.318Z,4.95
2023-05-06T21:09:08.029Z,5.38
2023-05-06T21:11:34.729Z,5.88
2023-05-06T21:14:02.430Z,5.43
2023-05-06T21:16:30.093Z,5.97
2023-05-06T21:18:57.324Z,4.05
2023-05-06T21:21:25.979Z,4.87
2023-05-06T21:23:52.785Z,3.88
2023-05-06T21:26:21.670Z,5.50
2023-05-06T21:28:52.091Z,5.10
2023-05-06T21:31:23.413Z,3.92
2023-05-06T21:33:58.197Z,4.88
2023-05-06T21:36:25.520Z,5.85
2023-05-06T21:39:03.827Z,8.55
2023-05-06T21:41:31.232Z,5.22
2023-05-06T21:43:59.314Z,6.80
2023-05-06T21:46:25.953Z,6.28
2023-05-06T21:48:52.662Z,6.32
2023-05-06T21:51:19.330Z,6.13
2023-05-06T21:53:50.297Z,4.38
2023-05-06T21:56:19.408Z,5.28
2023-05-06T21:58:46.106Z,3.60
2023-05-06T22:01:13.794Z,4.00
2023-05-06T22:03:41.790Z,5.95
2023-05-06T22:06:10.526Z,4.07
2023-05-06T22:08:37.740Z,8.13
2023-05-06T22:11:04.765Z,3.88
2023-05-06T22:13:34.305Z,5.87
2023-05-06T22:16:01.653Z,4.15
2023-05-06T22:18:30.435Z,4.72
2023-05-06T22:20:58.032Z,2.97
2023-05-06T22:23:25.931Z,4.53
2023-05-06T22:25:52.840Z,3.92
2023-05-06T22:28:20.280Z,3.40
2023-05-06T22:30:46.935Z,5.63
2023-05-06T22:33:17.907Z,3.55
2023-05-06T22:35:46.457Z,3.80
2023-05-06T22:38:14.546Z,4.68
2023-05-06T22:40:42.701Z,4.80
2023-05-06T22:43:09.589Z,5.25
2023-05-06T22:45:38.112Z,3.77
2023-05-06T22:48:08.084Z,4.60
2023-05-06T22:50:41.308Z,5.75
2023-05-06T22:53:15.357Z,6.57
2023-05-06T22:55:42.694Z,8.27
2023-05-06T22:58:09.802Z,4.93
2023-05-06T23:00:37.721Z,5.77
2023-05-06T23:03:05.375Z,3.47
2023-05-06T23:08:01.828Z,4.28
2023-05-06T23:10:29.704Z,6.18
2023-05-06T23:12:59.738Z,4.20
2023-05-06T23:15:27.040Z,4.90
2023-05-06T23:17:53.745Z,5.03
2023-05-06T23:20:20.473Z,5.73
2023-05-06T23:22:51.171Z,9.55
2023-05-06T23:25:18.227Z,8.35
2023-05-06T23:27:45.522Z,5.57
2023-05-06T23:30:12.728Z,3.58
2023-05-06T23:32:40.314Z,4.53
2023-05-06T23:35:07.958Z,5.28
2023-05-06T23:40:01.651Z,4.40
2023-05-06T23:42:28.380Z,5.43
2023-05-06T23:44:55.386Z,4.07
2023-05-06T23:47:22.075Z,4.77
2023-05-06T23:49:48.744Z,6.07
2023-05-06T23:52:15.419Z,4.78
2023-05-06T23:54:42.427Z,3.90
